createdAt,value
2022-08-28T00:02:49.334Z,17.30
2022-08-28T00:07:53.987Z,17.30
2022-08-28T00:12:59.439Z,17.30
2022-08-28T00:18:04.073Z,17.30
2022-08-28T00:23:08.269Z,17.20
2022-08-28T00:28:24.085Z,17.20
2022-08-28T00:33:30.823Z,17.30
2022-08-28T00:38:34.202Z,17.30
2022-08-28T00:43:42.209Z,17.30
2022-08-28T00:48:45.601Z,17.30
2022-08-28T00:53:56.720Z,17.30
2022-08-28T00:59:08.405Z,17.30
2022-08-28T01:04:16.984Z,17.30
2022-08-28T01:09:21.155Z,17.30
2022-08-28T01:14:27.028Z,17.20
2022-08-28T01:19:33.060Z,17.10
2022-08-28T01:24:40.366Z,17.10
2022-08-28T01:29:45.205Z,17.10
2022-08-28T01:34:52.447Z,17.10
2022-08-28T01:39:57.797Z,17.20
2022-08-28T01:45:01.057Z,17.20
2022-08-28T01:50:05.705Z,17.20
2022-08-28T01:55:12.172Z,17.10
2022-08-28T02:00:16.811Z,17.00
2022-08-28T02:05:23.888Z,17.00
2022-08-28T02:10:39.338Z,16.90
2022-08-28T02:15:44.401Z,16.90
2022-08-28T02:20:47.747Z,17.00
2022-08-28T02:25:52.649Z,17.00
2022-08-28T02:30:56.781Z,17.10
2022-08-28T02:36:00.232Z,17.00
2022-08-28T02:41:05.571Z,17.10
2022-08-28T02:46:09.188Z,17.10
2022-08-28T02:51:14.457Z,17.10
2022-08-28T02:56:19.592Z,17.00
2022-08-28T03:01:22.938Z,17.00
2022-08-28T03:06:26.204Z,17.00
2022-08-28T03:11:30.933Z,17.00
2022-08-28T03:16:34.852Z,17.10
2022-08-28T03:21:38.279Z,17.10
2022-08-28T03:26:43.100Z,17.10
2022-08-28T03:31:46.283Z,17.10
2022-08-28T03:36:49.921Z,17.10
2022-08-28T03:41:54.456Z,17.10
2022-08-28T03:46:57.909Z,17.10
2022-08-28T03:52:01.317Z,17.10
2022-08-28T03:57:06.364Z,17.10
2022-08-28T04:02:09.959Z,17.10
2022-08-28T04:07:13.402Z,17.10
2022-08-28T04:12:18.767Z,17.00
2022-08-28T04:17:22.132Z,17.00
2022-08-28T04:22:25.489Z,17.00
2022-08-28T04:27:30.348Z,17.00
2022-08-28T04:32:35.783Z,17.00
2022-08-28T04:37:39.768Z,17.10
2022-08-28T04:42:45.242Z,17.10
2022-08-28T04:47:49.097Z,17.10
2022-08-28T04:52:53.251Z,17.10
2022-08-28T04:57:58.037Z,17.20
2022-08-28T05:03:01.344Z,17.20
2022-08-28T05:08:04.770Z,17.20
2022-08-28T05:13:09.954Z,17.20
2022-08-28T05:18:14.389Z,17.30
2022-08-28T05:23:18.291Z,17.30
2022-08-28T05:28:24.498Z,17.30
2022-08-28T05:33:27.831Z,17.40
2022-08-28T05:38:31.036Z,17.40
2022-08-28T05:43:37.071Z,17.50
2022-08-28T05:48:42.027Z,17.50
2022-08-28T05:53:46.385Z,17.70
2022-08-28T05:58:51.231Z,17.80
2022-08-28T06:03:57.010Z,17.80
2022-08-28T06:09:02.603Z,17.90
2022-08-28T06:14:11.062Z,18.00
2022-08-28T06:19:14.984Z,18.10
2022-08-28T06:24:18.794Z,18.30
2022-08-28T06:29:23.550Z,18.60
2022-08-28T06:34:29.625Z,18.60
2022-08-28T06:39:46.280Z,18.60
2022-08-28T06:44:50.958Z,18.70
2022-08-28T06:49:54.644Z,18.70
2022-08-28T06:54:58.476Z,18.80
2022-08-28T07:00:03.911Z,19.00
2022-08-28T07:05:08.787Z,19.10
2022-08-28T07:10:12.379Z,19.10
2022-08-28T07:15:17.179Z,19.20
2022-08-28T07:20:20.559Z,19.40
2022-08-28T07:25:26.860Z,19.50
2022-08-28T07:30:31.635Z,19.60
2022-08-28T07:35:34.998Z,19.70
2022-08-28T07:40:38.221Z,19.80
2022-08-28T07:45:43.601Z,19.90
2022-08-28T07:50:46.975Z,19.90
2022-08-28T07:55:51.647Z,20.10
2022-08-28T08:00:56.420Z,20.40
2022-08-28T08:06:03.128Z,20.50
2022-08-28T08:11:08.475Z,20.30
2022-08-28T08:16:19.055Z,20.20
2022-08-28T08:21:26.137Z,20.40
2022-08-28T08:26:33.191Z,20.70
2022-08-28T08:31:38.017Z,20.70
2022-08-28T08:36:46.003Z,21.10
2022-08-28T08:41:52.764Z,21.50
2022-08-28T08:47:14.147Z,22.00
2022-08-28T08:52:31.873Z,22.40
2022-08-28T08:57:38.244Z,23.20
2022-08-28T09:02:49.459Z,25.30
2022-08-28T09:07:57.851Z,26.10
2022-08-28T09:13:12.778Z,27.60
2022-08-28T09:18:22.444Z,27.10
2022-08-28T09:23:27.125Z,25.70
2022-08-28T09:28:35.841Z,25.80
2022-08-28T09:33:45.013Z,25.20
2022-08-28T09:38:48.260Z,24.30
2022-08-28T09:43:51.678Z,24.00
2022-08-28T09:49:10.385Z,24.60
2022-08-28T09:54:20.250Z,24.50
2022-08-28T09:59:25.917Z,24.60
2022-08-28T10:04:52.631Z,24.60
2022-08-28T10:10:07.595Z,24.50
2022-08-28T10:15:18.165Z,24.60
2022-08-28T10:20:31.371Z,24.50
2022-08-28T10:25:44.153Z,25.40
2022-08-28T10:31:03.360Z,25.70
2022-08-28T10:36:33.958Z,26.60
2022-08-28T10:41:43.945Z,26.10
2022-08-28T10:46:53.642Z,25.60
2022-08-28T10:52:04.601Z,25.50
2022-08-28T10:57:18.198Z,26.10
2022-08-28T11:02:25.811Z,26.10
2022-08-28T11:07:36.349Z,26.10
2022-08-28T11:12:44.246Z,25.80
2022-08-28T11:17:48.327Z,27.00
2022-08-28T11:22:57.772Z,27.00
2022-08-28T11:28:18.855Z,26.70
2022-08-28T11:33:47.817Z,26.70
2022-08-28T11:39:22.905Z,27.00
2022-08-28T11:44:29.744Z,26.50
2022-08-28T11:49:43.362Z,26.50
2022-08-28T11:54:57.957Z,27.00
2022-08-28T12:00:09.570Z,27.20
2022-08-28T12:05:34.394Z,26.80
2022-08-28T12:10:59.658Z,26.20
2022-08-28T12:16:08.128Z,26.80
2022-08-28T12:21:17.423Z,26.80
2022-08-28T12:26:26.310Z,26.80
2022-08-28T12:32:15.122Z,25.70
2022-08-28T12:37:51.250Z,25.30
2022-08-28T12:43:00.598Z,25.10
2022-08-28T12:48:14.239Z,24.40
2022-08-28T12:53:19.636Z,24.70
2022-08-28T12:58:34.042Z,25.20
2022-08-28T13:03:44.453Z,25.60
2022-08-28T13:08:50.360Z,25.60
2022-08-28T13:14:04.467Z,26.00
2022-08-28T13:19:25.758Z,26.40
2022-08-28T13:24:42.606Z,26.00
2022-08-28T13:30:02.885Z,26.20
2022-08-28T13:35:33.159Z,26.10
2022-08-28T13:41:03.109Z,26.10
2022-08-28T13:46:08.118Z,26.40
2022-08-28T13:51:20.947Z,26.50
2022-08-28T13:56:25.944Z,26.50
2022-08-28T14:02:05.710Z,26.50
2022-08-28T14:07:29.482Z,26.40
2022-08-28T14:12:41.835Z,26.50
2022-08-28T14:17:55.483Z,26.40
2022-08-28T14:23:05.930Z,26.20
2022-08-28T14:28:26.198Z,26.20
2022-08-28T14:33:36.839Z,26.20
2022-08-28T14:38:41.538Z,26.00
2022-08-28T14:43:45.944Z,25.90
2022-08-28T14:48:53.831Z,25.70
2022-08-28T14:54:01.012Z,25.60
2022-08-28T14:59:06.751Z,25.70
2022-08-28T15:04:14.852Z,25.50
2022-08-28T15:09:20.328Z,25.40
2022-08-28T15:14:25.964Z,25.20
2022-08-28T15:19:30.900Z,25.40
2022-08-28T15:24:45.457Z,25.50
2022-08-28T15:29:48.862Z,25.40
2022-08-28T15:34:53.867Z,25.30
2022-08-28T15:40:23.014Z,25.40
2022-08-28T15:45:28.742Z,25.40
2022-08-28T15:50:44.858Z,25.20
2022-08-28T15:55:57.371Z,25.10
2022-08-28T16:01:08.039Z,25.00
2022-08-28T16:06:14.480Z,24.70
2022-08-28T16:11:41.115Z,24.80
2022-08-28T16:16:46.474Z,24.80
2022-08-28T16:22:14.889Z,24.70
2022-08-28T16:27:45.672Z,24.40
2022-08-28T16:32:54.730Z,24.40
2022-08-28T16:38:40.560Z,24.10
2022-08-28T16:43:52.684Z,24.20
2022-08-28T16:49:02.846Z,24.00
2022-08-28T16:54:15.240Z,23.80
2022-08-28T16:59:23.408Z,23.70
2022-08-28T17:04:29.056Z,23.50
2022-08-28T17:09:33.135Z,23.10
2022-08-28T17:14:39.051Z,23.00
2022-08-28T17:19:43.426Z,22.80
2022-08-28T17:24:56.057Z,22.70
2022-08-28T17:30:01.721Z,22.60
2022-08-28T17:35:07.090Z,22.40
2022-08-28T17:40:13.709Z,22.20
2022-08-28T17:45:18.645Z,22.00
2022-08-28T17:50:23.270Z,21.90
2022-08-28T17:55:27.609Z,21.70
2022-08-28T18:00:33.574Z,21.60
2022-08-28T18:05:41.212Z,21.40
2022-08-28T18:10:44.473Z,21.10
2022-08-28T18:15:56.585Z,20.90
2022-08-28T18:21:01.775Z,20.70
2022-08-28T18:26:06.416Z,20.40
2022-08-28T18:31:12.313Z,20.20
2022-08-28T18:36:23.634Z,20.10
2022-08-28T18:41:34.517Z,19.90
2022-08-28T18:46:48.822Z,19.90
2022-08-28T18:51:52.388Z,19.80
2022-08-28T18:57:01.440Z,19.80
2022-08-28T19:02:10.239Z,19.60
2022-08-28T19:07:19.121Z,19.50
2022-08-28T19:12:22.569Z,19.30
2022-08-28T19:17:30.347Z,19.20
2022-08-28T19:22:40.006Z,19.10
2022-08-28T19:27:44.339Z,18.90
2022-08-28T19:32:56.754Z,18.80
2022-08-28T19:38:00.109Z,18.70
2022-08-28T19:43:03.589Z,18.60
2022-08-28T19:48:13.014Z,18.40
2022-08-28T19:53:22.424Z,18.40
2022-08-28T19:58:25.776Z,18.30
2022-08-28T20:03:36.427Z,18.30
2022-08-28T20:08:40.045Z,18.20
2022-08-28T20:13:48.532Z,18.10
2022-08-28T20:18:54.535Z,18.10
2022-08-28T20:23:57.865Z,18.00
2022-08-28T20:29:01.175Z,17.90
2022-08-28T20:34:06.136Z,17.90
2022-08-28T20:39:10.284Z,17.70
2022-08-28T20:44:17.070Z,17.60
2022-08-28T20:49:23.049Z,17.60
2022-08-28T20:54:29.850Z,17.50
2022-08-28T20:59:39.932Z,17.40
2022-08-28T21:04:48.101Z,17.30
2022-08-28T21:10:05.610Z,17.20
2022-08-28T21:15:13.684Z,17.10
2022-08-28T21:20:20.173Z,17.00
2022-08-28T21:25:25.221Z,17.00
2022-08-28T21:30:30.664Z,17.00
2022-08-28T21:35:35.639Z,17.00
2022-08-28T21:40:40.977Z,17.00
2022-08-28T21:45:45.121Z,17.00
2022-08-28T21:50:50.004Z,16.90
2022-08-28T21:55:57.114Z,16.90
2022-08-28T22:01:01.136Z,16.80
2022-08-28T22:06:10.909Z,16.80
2022-08-28T22:11:14.813Z,16.70
2022-08-28T22:16:20.433Z,16.50
2022-08-28T22:21:44.597Z,16.40
2022-08-28T22:26:48.067Z,16.30
2022-08-28T22:31:51.480Z,16.20
2022-08-28T22:36:56.139Z,16.10
2022-08-28T22:41:59.630Z,16.00
2022-08-28T22:47:03.284Z,15.90
2022-08-28T22:52:11.188Z,15.90
2022-08-28T22:57:14.513Z,15.80
2022-08-28T23:02:19.245Z,15.70
2022-08-28T23:07:24.103Z,15.70
2022-08-28T23:12:30.732Z,15.60
2022-08-28T23:17:34.120Z,15.60
2022-08-28T23:22:38.913Z,15.50
2022-08-28T23:27:43.919Z,15.40
2022-08-28T23:32:48.467Z,15.40
2022-08-28T23:37:54.495Z,15.40
2022-08-28T23:42:58.424Z,15.30
2022-08-28T23:48:02.544Z,15.20
2022-08-28T23:53:12.333Z,15.10
2022-08-28T23:58:15.984Z,15.10
